sensor_id;sensor_type;location;lat;lon;timestamp;temperature;humidity
23532;DHT22;11943;52.270;20.978;2022-08-16T00:00:32;22.10;99.90
23532;DHT22;11943;52.270;20.978;2022-08-16T00:03:00;22.00;99.90
23532;DHT22;11943;52.270;20.978;2022-08-16T00:05:26;22.00;99.90
23532;DHT22;11943;52.270;20.978;2022-08-16T00:07:52;22.00;99.90
23532;DHT22;11943;52.270;20.978;2022-08-16T00:10:18;22.00;99.90
23532;DHT22;11943;52.270;20.978;2022-08-16T00:12:44;21.90;99.90
23532;DHT22;11943;52.270;20.978;2022-08-16T00:15:11;22.00;99.90
23532;DHT22;11943;52.270;20.978;2022-08-16T00:17:37;21.90;99.90
23532;DHT22;11943;52.270;20.978;2022-08-16T00:20:03;21.90;99.90
23532;DHT22;11943;52.270;20.978;2022-08-16T00:22:33;21.80;99.90
23532;DHT22;11943;52.270;20.978;2022-08-16T00:24:59;21.80;99.90
23532;DHT22;11943;52.270;20.978;2022-08-16T00:27:24;21.70;99.90
23532;DHT22;11943;52.270;20.978;2022-08-16T00:29:50;21.70;99.90
23532;DHT22;11943;52.270;20.978;2022-08-16T00:32:17;21.60;99.90
23532;DHT22;11943;52.270;20.978;2022-08-16T00:34:42;21.60;99.90
23532;DHT22;11943;52.270;20.978;2022-08-16T00:37:08;21.60;99.90
23532;DHT22;11943;52.270;20.978;2022-08-16T00:39:34;21.60;99.90
23532;DHT22;11943;52.270;20.978;2022-08-16T00:41:59;21.60;99.90
23532;DHT22;11943;52.270;20.978;2022-08-16T00:44:25;21.50;99.90
23532;DHT22;11943;52.270;20.978;2022-08-16T00:49:16;21.40;99.90
23532;DHT22;11943;52.270;20.978;2022-08-16T00:51:41;21.40;99.90
23532;DHT22;11943;52.270;20.978;2022-08-16T00:54:07;21.40;99.90
23532;DHT22;11943;52.270;20.978;2022-08-16T00:56:34;21.30;99.90
23532;DHT22;11943;52.270;20.978;2022-08-16T00:59:01;21.30;99.90
23532;DHT22;11943;52.270;20.978;2022-08-16T01:01:27;21.30;99.90
23532;DHT22;11943;52.270;20.978;2022-08-16T01:03:53;21.30;99.90
23532;DHT22;11943;52.270;20.978;2022-08-16T01:06:19;21.20;99.90
23532;DHT22;11943;52.270;20.978;2022-08-16T01:08:46;21.20;99.90
23532;DHT22;11943;52.270;20.978;2022-08-16T01:11:13;21.20;99.90
23532;DHT22;11943;52.270;20.978;2022-08-16T01:13:39;21.20;99.90
23532;DHT22;11943;52.270;20.978;2022-08-16T01:16:09;21.10;99.90
23532;DHT22;11943;52.270;20.978;2022-08-16T01:18:47;21.10;99.90
23532;DHT22;11943;52.270;20.978;2022-08-16T01:26:23;21.10;99.90
23532;DHT22;11943;52.270;20.978;2022-08-16T01:28:50;21.10;99.90
23532;DHT22;11943;52.270;20.978;2022-08-16T01:31:16;21.10;99.90
23532;DHT22;11943;52.270;20.978;2022-08-16T01:33:42;21.10;99.90
23532;DHT22;11943;52.270;20.978;2022-08-16T01:36:08;21.10;99.90
23532;DHT22;11943;52.270;20.978;2022-08-16T01:38:38;21.00;99.90
23532;DHT22;11943;52.270;20.978;2022-08-16T01:41:06;21.00;99.90
23532;DHT22;11943;52.270;20.978;2022-08-16T01:43:33;21.10;99.90
23532;DHT22;11943;52.270;20.978;2022-08-16T01:46:00;21.10;99.90
23532;DHT22;11943;52.270;20.978;2022-08-16T01:48:28;21.10;99.90
23532;DHT22;11943;52.270;20.978;2022-08-16T01:50:54;21.10;99.90
23532;DHT22;11943;52.270;20.978;2022-08-16T01:53:19;21.10;99.90
23532;DHT22;11943;52.270;20.978;2022-08-16T01:55:45;21.00;99.90
23532;DHT22;11943;52.270;20.978;2022-08-16T01:58:13;21.00;99.90
23532;DHT22;11943;52.270;20.978;2022-08-16T02:00:40;21.00;99.90
23532;DHT22;11943;52.270;20.978;2022-08-16T02:03:06;21.00;99.90
23532;DHT22;11943;52.270;20.978;2022-08-16T02:05:31;21.00;99.90
23532;DHT22;11943;52.270;20.978;2022-08-16T02:07:57;21.00;99.90
23532;DHT22;11943;52.270;20.978;2022-08-16T02:10:23;21.00;99.90
23532;DHT22;11943;52.270;20.978;2022-08-16T02:12:48;21.00;99.90
23532;DHT22;11943;52.270;20.978;2022-08-16T02:15:14;21.00;99.90
23532;DHT22;11943;52.270;20.978;2022-08-16T02:17:40;21.00;99.90
23532;DHT22;11943;52.270;20.978;2022-08-16T02:20:07;21.00;99.90
23532;DHT22;11943;52.270;20.978;2022-08-16T02:22:32;21.00;99.90
23532;DHT22;11943;52.270;20.978;2022-08-16T02:24:58;21.00;99.90
23532;DHT22;11943;52.270;20.978;2022-08-16T02:27:24;21.00;99.90
23532;DHT22;11943;52.270;20.978;2022-08-16T02:29:49;21.00;99.90
23532;DHT22;11943;52.270;20.978;2022-08-16T02:32:15;21.00;99.90
23532;DHT22;11943;52.270;20.978;2022-08-16T02:34:41;21.10;99.90
23532;DHT22;11943;52.270;20.978;2022-08-16T02:37:06;21.10;99.90
23532;DHT22;11943;52.270;20.978;2022-08-16T02:39:32;21.10;99.90
23532;DHT22;11943;52.270;20.978;2022-08-16T02:41:57;21.10;99.90
23532;DHT22;11943;52.270;20.978;2022-08-16T02:44:23;21.10;99.90
23532;DHT22;11943;52.270;20.978;2022-08-16T02:46:49;21.10;99.90
23532;DHT22;11943;52.270;20.978;2022-08-16T02:49:14;21.10;99.90
23532;DHT22;11943;52.270;20.978;2022-08-16T02:51:40;21.10;99.90
23532;DHT22;11943;52.270;20.978;2022-08-16T02:54:06;21.10;99.90
23532;DHT22;11943;52.270;20.978;2022-08-16T02:56:32;21.10;99.90
23532;DHT22;11943;52.270;20.978;2022-08-16T02:58:57;21.10;99.90
23532;DHT22;11943;52.270;20.978;2022-08-16T03:01:24;21.10;99.90
23532;DHT22;11943;52.270;20.978;2022-08-16T03:03:51;21.10;99.90
23532;DHT22;11943;52.270;20.978;2022-08-16T03:06:16;21.10;99.90
23532;DHT22;11943;52.270;20.978;2022-08-16T03:08:45;21.10;99.90
23532;DHT22;11943;52.270;20.978;2022-08-16T03:11:11;21.00;99.90
23532;DHT22;11943;52.270;20.978;2022-08-16T03:13:37;21.00;99.90
23532;DHT22;11943;52.270;20.978;2022-08-16T03:16:03;21.00;99.90
23532;DHT22;11943;52.270;20.978;2022-08-16T03:18:29;20.90;99.90
23532;DHT22;11943;52.270;20.978;2022-08-16T03:20:55;20.90;99.90
23532;DHT22;11943;52.270;20.978;2022-08-16T03:23:21;20.90;99.90
23532;DHT22;11943;52.270;20.978;2022-08-16T03:25:46;20.80;99.90
23532;DHT22;11943;52.270;20.978;2022-08-16T03:28:12;20.80;99.90
23532;DHT22;11943;52.270;20.978;2022-08-16T03:30:38;20.80;99.90
23532;DHT22;11943;52.270;20.978;2022-08-16T03:33:04;20.90;99.90
23532;DHT22;11943;52.270;20.978;2022-08-16T03:35:30;20.90;99.90
23532;DHT22;11943;52.270;20.978;2022-08-16T03:37:57;20.90;99.90
23532;DHT22;11943;52.270;20.978;2022-08-16T03:40:23;20.90;99.90
23532;DHT22;11943;52.270;20.978;2022-08-16T03:42:48;20.90;99.90
23532;DHT22;11943;52.270;20.978;2022-08-16T03:45:14;21.00;99.90
23532;DHT22;11943;52.270;20.978;2022-08-16T03:47:40;20.90;99.90
23532;DHT22;11943;52.270;20.978;2022-08-16T03:50:05;20.90;99.90
23532;DHT22;11943;52.270;20.978;2022-08-16T03:52:31;21.00;99.90
23532;DHT22;11943;52.270;20.978;2022-08-16T03:54:57;20.90;99.90
23532;DHT22;11943;52.270;20.978;2022-08-16T03:57:23;20.90;99.90
23532;DHT22;11943;52.270;20.978;2022-08-16T03:59:49;20.90;99.90
23532;DHT22;11943;52.270;20.978;2022-08-16T04:02:14;20.90;99.90
23532;DHT22;11943;52.270;20.978;2022-08-16T04:04:43;20.90;99.90
23532;DHT22;11943;52.270;20.978;2022-08-16T04:07:08;20.90;99.90
23532;DHT22;11943;52.270;20.978;2022-08-16T04:09:34;20.90;99.90
23532;DHT22;11943;52.270;20.978;2022-08-16T04:12:00;20.90;99.90
23532;DHT22;11943;52.270;20.978;2022-08-16T04:14:26;20.90;99.90
23532;DHT22;11943;52.270;20.978;2022-08-16T04:16:51;20.90;99.90
23532;DHT22;11943;52.270;20.978;2022-08-16T04:19:17;20.90;99.90
23532;DHT22;11943;52.270;20.978;2022-08-16T04:21:42;20.90;99.90
23532;DHT22;11943;52.270;20.978;2022-08-16T04:24:08;21.00;99.90
23532;DHT22;11943;52.270;20.978;2022-08-16T04:26:34;21.00;99.90
23532;DHT22;11943;52.270;20.978;2022-08-16T04:28:59;21.00;99.90
23532;DHT22;11943;52.270;20.978;2022-08-16T04:31:25;21.00;99.90
23532;DHT22;11943;52.270;20.978;2022-08-16T04:33:51;21.00;99.90
23532;DHT22;11943;52.270;20.978;2022-08-16T04:36:17;21.00;99.90
23532;DHT22;11943;52.270;20.978;2022-08-16T04:38:43;21.10;99.90
23532;DHT22;11943;52.270;20.978;2022-08-16T04:41:08;21.10;99.90
23532;DHT22;11943;52.270;20.978;2022-08-16T04:43:34;21.10;99.90
23532;DHT22;11943;52.270;20.978;2022-08-16T04:46:03;21.10;99.90
23532;DHT22;11943;52.270;20.978;2022-08-16T04:48:28;21.20;99.90
23532;DHT22;11943;52.270;20.978;2022-08-16T04:50:54;21.10;99.90
23532;DHT22;11943;52.270;20.978;2022-08-16T04:53:19;21.20;99.90
23532;DHT22;11943;52.270;20.978;2022-08-16T04:55:45;21.20;99.90
23532;DHT22;11943;52.270;20.978;2022-08-16T04:58:10;21.20;99.90
23532;DHT22;11943;52.270;20.978;2022-08-16T05:00:35;21.30;99.90
23532;DHT22;11943;52.270;20.978;2022-08-16T05:03:06;21.40;99.90
23532;DHT22;11943;52.270;20.978;2022-08-16T05:05:32;21.40;99.90
23532;DHT22;11943;52.270;20.978;2022-08-16T05:07:58;21.50;99.90
23532;DHT22;11943;52.270;20.978;2022-08-16T05:10:24;21.50;99.90
23532;DHT22;11943;52.270;20.978;2022-08-16T05:12:49;21.60;99.90
23532;DHT22;11943;52.270;20.978;2022-08-16T05:15:15;21.60;99.90
23532;DHT22;11943;52.270;20.978;2022-08-16T05:17:40;21.70;99.90
23532;DHT22;11943;52.270;20.978;2022-08-16T05:20:07;21.80;99.90
23532;DHT22;11943;52.270;20.978;2022-08-16T05:22:34;21.80;99.90
23532;DHT22;11943;52.270;20.978;2022-08-16T05:25:01;21.80;99.90
23532;DHT22;11943;52.270;20.978;2022-08-16T05:27:27;21.90;99.90
23532;DHT22;11943;52.270;20.978;2022-08-16T05:29:52;22.10;99.90
23532;DHT22;11943;52.270;20.978;2022-08-16T05:32:18;22.00;99.90
23532;DHT22;11943;52.270;20.978;2022-08-16T05:34:43;22.10;99.90
23532;DHT22;11943;52.270;20.978;2022-08-16T05:37:08;22.20;99.90
23532;DHT22;11943;52.270;20.978;2022-08-16T05:39:34;22.30;99.90
23532;DHT22;11943;52.270;20.978;2022-08-16T05:42:00;22.20;99.90
23532;DHT22;11943;52.270;20.978;2022-08-16T05:44:25;22.20;99.90
23532;DHT22;11943;52.270;20.978;2022-08-16T05:46:52;22.20;99.90
23532;DHT22;11943;52.270;20.978;2022-08-16T05:49:18;22.20;99.90
23532;DHT22;11943;52.270;20.978;2022-08-16T05:51:44;22.30;99.90
23532;DHT22;11943;52.270;20.978;2022-08-16T05:54:11;22.40;99.90
23532;DHT22;11943;52.270;20.978;2022-08-16T05:56:37;22.40;99.90
23532;DHT22;11943;52.270;20.978;2022-08-16T05:59:03;22.50;99.90
23532;DHT22;11943;52.270;20.978;2022-08-16T06:01:29;22.50;99.90
23532;DHT22;11943;52.270;20.978;2022-08-16T06:03:55;22.60;99.90
23532;DHT22;11943;52.270;20.978;2022-08-16T06:06:20;22.40;99.90
23532;DHT22;11943;52.270;20.978;2022-08-16T06:08:46;22.50;99.90
23532;DHT22;11943;52.270;20.978;2022-08-16T06:11:11;22.50;99.90
23532;DHT22;11943;52.270;20.978;2022-08-16T06:13:37;22.50;99.90
23532;DHT22;11943;52.270;20.978;2022-08-16T06:16:03;22.50;99.90
23532;DHT22;11943;52.270;20.978;2022-08-16T06:18:29;22.60;99.90
23532;DHT22;11943;52.270;20.978;2022-08-16T06:20:54;22.60;99.90
23532;DHT22;11943;52.270;20.978;2022-08-16T06:23:20;22.50;99.90
23532;DHT22;11943;52.270;20.978;2022-08-16T06:25:47;22.60;99.90
23532;DHT22;11943;52.270;20.978;2022-08-16T06:28:13;22.60;99.90
23532;DHT22;11943;52.270;20.978;2022-08-16T06:30:39;22.60;99.90
23532;DHT22;11943;52.270;20.978;2022-08-16T06:33:04;22.70;99.90
23532;DHT22;11943;52.270;20.978;2022-08-16T06:35:30;22.80;99.90
23532;DHT22;11943;52.270;20.978;2022-08-16T06:37:56;22.80;99.90
23532;DHT22;11943;52.270;20.978;2022-08-16T06:40:21;22.90;99.90
23532;DHT22;11943;52.270;20.978;2022-08-16T06:42:49;22.90;99.90
23532;DHT22;11943;52.270;20.978;2022-08-16T06:45:16;23.20;99.90
23532;DHT22;11943;52.270;20.978;2022-08-16T06:47:42;23.30;99.90
23532;DHT22;11943;52.270;20.978;2022-08-16T06:50:07;23.40;99.90
23532;DHT22;11943;52.270;20.978;2022-08-16T06:52:33;23.50;99.90
23532;DHT22;11943;52.270;20.978;2022-08-16T06:55:01;23.60;99.90
23532;DHT22;11943;52.270;20.978;2022-08-16T06:57:26;23.70;99.90
23532;DHT22;11943;52.270;20.978;2022-08-16T06:59:52;23.60;99.90
23532;DHT22;11943;52.270;20.978;2022-08-16T07:02:17;23.70;99.90
23532;DHT22;11943;52.270;20.978;2022-08-16T07:04:44;23.80;99.90
23532;DHT22;11943;52.270;20.978;2022-08-16T07:07:09;23.90;99.90
23532;DHT22;11943;52.270;20.978;2022-08-16T07:09:34;24.10;99.90
23532;DHT22;11943;52.270;20.978;2022-08-16T07:12:00;24.30;99.90
23532;DHT22;11943;52.270;20.978;2022-08-16T07:14:25;24.20;99.90
23532;DHT22;11943;52.270;20.978;2022-08-16T07:16:51;24.40;99.90
23532;DHT22;11943;52.270;20.978;2022-08-16T07:19:17;24.70;99.90
23532;DHT22;11943;52.270;20.978;2022-08-16T07:21:42;25.10;99.90
23532;DHT22;11943;52.270;20.978;2022-08-16T07:24:08;25.40;99.90
23532;DHT22;11943;52.270;20.978;2022-08-16T07:26:33;25.70;99.90
23532;DHT22;11943;52.270;20.978;2022-08-16T07:28:59;25.60;99.90
23532;DHT22;11943;52.270;20.978;2022-08-16T07:31:25;25.50;99.90
23532;DHT22;11943;52.270;20.978;2022-08-16T07:33:50;25.80;99.90
23532;DHT22;11943;52.270;20.978;2022-08-16T07:36:17;26.00;99.90
23532;DHT22;11943;52.270;20.978;2022-08-16T07:38:43;26.10;99.90
23532;DHT22;11943;52.270;20.978;2022-08-16T07:41:08;25.80;99.90
23532;DHT22;11943;52.270;20.978;2022-08-16T07:43:34;25.70;99.90
23532;DHT22;11943;52.270;20.978;2022-08-16T07:45:59;25.80;99.90
23532;DHT22;11943;52.270;20.978;2022-08-16T07:48:25;25.80;99.90
23532;DHT22;11943;52.270;20.978;2022-08-16T07:50:51;26.20;99.90
23532;DHT22;11943;52.270;20.978;2022-08-16T07:53:17;26.50;99.90
23532;DHT22;11943;52.270;20.978;2022-08-16T07:55:42;26.60;99.90
23532;DHT22;11943;52.270;20.978;2022-08-16T07:58:08;26.40;99.90
23532;DHT22;11943;52.270;20.978;2022-08-16T08:00:34;26.50;99.90
23532;DHT22;11943;52.270;20.978;2022-08-16T08:02:59;26.60;99.90
23532;DHT22;11943;52.270;20.978;2022-08-16T08:05:25;26.40;99.90
23532;DHT22;11943;52.270;20.978;2022-08-16T08:07:50;26.60;99.90
23532;DHT22;11943;52.270;20.978;2022-08-16T08:10:17;26.70;99.90
23532;DHT22;11943;52.270;20.978;2022-08-16T08:12:43;26.50;99.90
23532;DHT22;11943;52.270;20.978;2022-08-16T08:15:09;26.70;99.90
23532;DHT22;11943;52.270;20.978;2022-08-16T08:17:35;26.70;99.90
23532;DHT22;11943;52.270;20.978;2022-08-16T08:20:04;26.70;99.90
23532;DHT22;11943;52.270;20.978;2022-08-16T08:22:31;26.80;99.90
23532;DHT22;11943;52.270;20.978;2022-08-16T08:24:57;27.00;99.90
23532;DHT22;11943;52.270;20.978;2022-08-16T08:27:22;27.20;99.90
23532;DHT22;11943;52.270;20.978;2022-08-16T08:29:48;27.20;99.90
23532;DHT22;11943;52.270;20.978;2022-08-16T08:32:14;27.00;99.90
23532;DHT22;11943;52.270;20.978;2022-08-16T08:34:39;27.10;99.90
23532;DHT22;11943;52.270;20.978;2022-08-16T08:37:06;27.10;99.90
23532;DHT22;11943;52.270;20.978;2022-08-16T08:39:32;27.30;99.90
23532;DHT22;11943;52.270;20.978;2022-08-16T08:41:58;27.30;99.90
23532;DHT22;11943;52.270;20.978;2022-08-16T08:44:24;27.20;99.90
23532;DHT22;11943;52.270;20.978;2022-08-16T08:46:49;27.20;99.90
23532;DHT22;11943;52.270;20.978;2022-08-16T08:49:15;27.20;99.90
23532;DHT22;11943;52.270;20.978;2022-08-16T08:51:41;27.20;99.90
23532;DHT22;11943;52.270;20.978;2022-08-16T08:54:07;27.20;99.90
23532;DHT22;11943;52.270;20.978;2022-08-16T08:56:35;27.30;99.90
23532;DHT22;11943;52.270;20.978;2022-08-16T08:59:03;27.40;99.90
23532;DHT22;11943;52.270;20.978;2022-08-16T09:01:29;27.50;99.90
23532;DHT22;11943;52.270;20.978;2022-08-16T09:03:55;27.60;99.90
23532;DHT22;11943;52.270;20.978;2022-08-16T09:06:21;28.00;99.90
23532;DHT22;11943;52.270;20.978;2022-08-16T09:08:47;28.10;99.90
23532;DHT22;11943;52.270;20.978;2022-08-16T09:11:12;28.20;99.70
23532;DHT22;11943;52.270;20.978;2022-08-16T09:13:38;28.30;99.30
23532;DHT22;11943;52.270;20.978;2022-08-16T09:16:04;28.30;99.90
23532;DHT22;11943;52.270;20.978;2022-08-16T09:18:30;28.80;99.90
23532;DHT22;11943;52.270;20.978;2022-08-16T09:20:55;28.90;98.10
23532;DHT22;11943;52.270;20.978;2022-08-16T09:23:21;28.90;97.00
23532;DHT22;11943;52.270;20.978;2022-08-16T09:25:47;28.60;97.40
23532;DHT22;11943;52.270;20.978;2022-08-16T09:28:13;28.90;97.20
23532;DHT22;11943;52.270;20.978;2022-08-16T09:30:38;28.90;95.20
23532;DHT22;11943;52.270;20.978;2022-08-16T09:33:04;28.80;96.40
23532;DHT22;11943;52.270;20.978;2022-08-16T09:35:31;29.10;95.40
23532;DHT22;11943;52.270;20.978;2022-08-16T09:37:57;28.70;95.60
23532;DHT22;11943;52.270;20.978;2022-08-16T09:40:22;28.40;96.40
23532;DHT22;11943;52.270;20.978;2022-08-16T09:42:48;28.20;98.20
23532;DHT22;11943;52.270;20.978;2022-08-16T09:45:14;28.10;97.60
23532;DHT22;11943;52.270;20.978;2022-08-16T09:47:40;27.90;99.30
23532;DHT22;11943;52.270;20.978;2022-08-16T09:50:09;28.00;99.90
23532;DHT22;11943;52.270;20.978;2022-08-16T09:52:35;28.00;99.80
23532;DHT22;11943;52.270;20.978;2022-08-16T09:55:08;28.00;99.90
23532;DHT22;11943;52.270;20.978;2022-08-16T09:57:34;28.00;99.90
23532;DHT22;11943;52.270;20.978;2022-08-16T10:00:00;27.90;99.90
23532;DHT22;11943;52.270;20.978;2022-08-16T10:02:26;27.80;99.90
23532;DHT22;11943;52.270;20.978;2022-08-16T10:04:52;27.80;99.90
23532;DHT22;11943;52.270;20.978;2022-08-16T10:07:18;27.70;99.90
23532;DHT22;11943;52.270;20.978;2022-08-16T10:09:43;27.70;99.90
23532;DHT22;11943;52.270;20.978;2022-08-16T10:12:11;27.70;99.90
23532;DHT22;11943;52.270;20.978;2022-08-16T10:15:10;27.50;99.90
23532;DHT22;11943;52.270;20.978;2022-08-16T10:17:36;27.60;99.90
23532;DHT22;11943;52.270;20.978;2022-08-16T10:20:09;27.90;99.90
23532;DHT22;11943;52.270;20.978;2022-08-16T10:22:35;27.90;99.90
23532;DHT22;11943;52.270;20.978;2022-08-16T10:25:02;27.80;99.90
23532;DHT22;11943;52.270;20.978;2022-08-16T10:27:27;27.60;99.90
23532;DHT22;11943;52.270;20.978;2022-08-16T10:29:53;27.60;99.90
23532;DHT22;11943;52.270;20.978;2022-08-16T10:32:18;27.60;99.90
23532;DHT22;11943;52.270;20.978;2022-08-16T10:34:45;27.70;99.90
23532;DHT22;11943;52.270;20.978;2022-08-16T10:37:10;27.70;99.90
23532;DHT22;11943;52.270;20.978;2022-08-16T10:39:37;27.70;99.90
23532;DHT22;11943;52.270;20.978;2022-08-16T10:42:04;27.80;99.90
23532;DHT22;11943;52.270;20.978;2022-08-16T10:44:30;27.80;99.90
23532;DHT22;11943;52.270;20.978;2022-08-16T10:46:55;27.70;99.90
23532;DHT22;11943;52.270;20.978;2022-08-16T10:49:21;27.70;99.90
23532;DHT22;11943;52.270;20.978;2022-08-16T10:51:46;27.70;99.90
23532;DHT22;11943;52.270;20.978;2022-08-16T10:54:12;27.70;99.90
23532;DHT22;11943;52.270;20.978;2022-08-16T10:56:38;27.70;99.90
23532;DHT22;11943;52.270;20.978;2022-08-16T10:59:04;27.80;99.90
23532;DHT22;11943;52.270;20.978;2022-08-16T11:01:30;27.80;99.90
23532;DHT22;11943;52.270;20.978;2022-08-16T11:03:56;27.80;99.90
23532;DHT22;11943;52.270;20.978;2022-08-16T11:06:21;27.90;99.90
23532;DHT22;11943;52.270;20.978;2022-08-16T11:08:47;27.80;99.30
23532;DHT22;11943;52.270;20.978;2022-08-16T11:11:13;28.00;97.90
23532;DHT22;11943;52.270;20.978;2022-08-16T11:13:40;27.60;99.70
23532;DHT22;11943;52.270;20.978;2022-08-16T11:16:06;27.50;99.90
23532;DHT22;11943;52.270;20.978;2022-08-16T11:18:31;27.50;99.90
23532;DHT22;11943;52.270;20.978;2022-08-16T11:20:57;27.80;99.90
23532;DHT22;11943;52.270;20.978;2022-08-16T11:23:23;27.80;99.90
23532;DHT22;11943;52.270;20.978;2022-08-16T11:25:49;27.80;99.90
23532;DHT22;11943;52.270;20.978;2022-08-16T11:28:15;27.60;99.90
23532;DHT22;11943;52.270;20.978;2022-08-16T11:30:41;27.60;99.90
23532;DHT22;11943;52.270;20.978;2022-08-16T11:33:07;27.50;99.90
23532;DHT22;11943;52.270;20.978;2022-08-16T11:35:34;27.40;99.90
23532;DHT22;11943;52.270;20.978;2022-08-16T11:38:01;27.20;99.90
23532;DHT22;11943;52.270;20.978;2022-08-16T11:40:28;26.90;99.90
23532;DHT22;11943;52.270;20.978;2022-08-16T11:42:55;26.80;99.90
23532;DHT22;11943;52.270;20.978;2022-08-16T11:45:21;26.80;99.90
23532;DHT22;11943;52.270;20.978;2022-08-16T11:47:48;26.60;99.90
23532;DHT22;11943;52.270;20.978;2022-08-16T11:50:13;26.60;99.90
23532;DHT22;11943;52.270;20.978;2022-08-16T11:52:39;26.70;99.90
23532;DHT22;11943;52.270;20.978;2022-08-16T11:55:06;26.80;99.90
23532;DHT22;11943;52.270;20.978;2022-08-16T11:57:32;26.70;99.90
23532;DHT22;11943;52.270;20.978;2022-08-16T11:59:57;27.00;99.90
23532;DHT22;11943;52.270;20.978;2022-08-16T12:02:23;27.20;99.90
23532;DHT22;11943;52.270;20.978;2022-08-16T12:04:49;27.20;99.90
23532;DHT22;11943;52.270;20.978;2022-08-16T12:07:15;27.30;99.90
23532;DHT22;11943;52.270;20.978;2022-08-16T12:09:40;27.40;99.90
23532;DHT22;11943;52.270;20.978;2022-08-16T12:12:06;27.60;99.90
23532;DHT22;11943;52.270;20.978;2022-08-16T12:14:32;27.70;99.90
23532;DHT22;11943;52.270;20.978;2022-08-16T12:16:58;27.70;99.90
23532;DHT22;11943;52.270;20.978;2022-08-16T12:19:24;27.80;99.90
23532;DHT22;11943;52.270;20.978;2022-08-16T12:21:50;28.10;99.90
23532;DHT22;11943;52.270;20.978;2022-08-16T12:24:15;28.20;99.90
23532;DHT22;11943;52.270;20.978;2022-08-16T12:26:41;28.10;99.90
23532;DHT22;11943;52.270;20.978;2022-08-16T12:29:06;28.00;99.90
23532;DHT22;11943;52.270;20.978;2022-08-16T12:31:32;28.30;99.90
23532;DHT22;11943;52.270;20.978;2022-08-16T12:33:57;28.50;99.90
23532;DHT22;11943;52.270;20.978;2022-08-16T12:36:23;28.80;99.90
23532;DHT22;11943;52.270;20.978;2022-08-16T12:38:50;28.80;99.80
23532;DHT22;11943;52.270;20.978;2022-08-16T12:41:15;28.70;99.40
23532;DHT22;11943;52.270;20.978;2022-08-16T12:43:41;28.30;99.60
23532;DHT22;11943;52.270;20.978;2022-08-16T12:46:07;28.20;99.90
23532;DHT22;11943;52.270;20.978;2022-08-16T12:48:33;27.90;99.90
23532;DHT22;11943;52.270;20.978;2022-08-16T12:51:19;27.80;99.90
23532;DHT22;11943;52.270;20.978;2022-08-16T12:53:49;27.60;99.90
23532;DHT22;11943;52.270;20.978;2022-08-16T12:56:16;27.40;99.90
23532;DHT22;11943;52.270;20.978;2022-08-16T12:58:42;27.20;99.90
23532;DHT22;11943;52.270;20.978;2022-08-16T13:01:08;27.00;99.90
23532;DHT22;11943;52.270;20.978;2022-08-16T13:03:33;26.80;99.90
23532;DHT22;11943;52.270;20.978;2022-08-16T13:05:59;26.90;99.90
23532;DHT22;11943;52.270;20.978;2022-08-16T13:08:25;26.70;99.90
23532;DHT22;11943;52.270;20.978;2022-08-16T13:10:51;26.60;99.90
23532;DHT22;11943;52.270;20.978;2022-08-16T13:13:20;26.70;99.90
23532;DHT22;11943;52.270;20.978;2022-08-16T13:15:50;26.60;99.90
23532;DHT22;11943;52.270;20.978;2022-08-16T13:18:16;26.70;99.90
23532;DHT22;11943;52.270;20.978;2022-08-16T13:20:41;26.90;99.90
23532;DHT22;11943;52.270;20.978;2022-08-16T13:23:08;27.20;99.90
23532;DHT22;11943;52.270;20.978;2022-08-16T13:25:36;27.40;99.90
23532;DHT22;11943;52.270;20.978;2022-08-16T13:28:02;27.50;99.90
23532;DHT22;11943;52.270;20.978;2022-08-16T13:30:29;27.80;99.90
23532;DHT22;11943;52.270;20.978;2022-08-16T13:32:54;28.00;98.60
23532;DHT22;11943;52.270;20.978;2022-08-16T13:35:20;28.00;98.60
23532;DHT22;11943;52.270;20.978;2022-08-16T13:37:47;28.40;98.40
23532;DHT22;11943;52.270;20.978;2022-08-16T13:40:12;28.60;96.90
23532;DHT22;11943;52.270;20.978;2022-08-16T13:42:38;28.70;94.70
23532;DHT22;11943;52.270;20.978;2022-08-16T13:45:08;28.70;92.20
23532;DHT22;11943;52.270;20.978;2022-08-16T13:47:34;28.80;90.60
23532;DHT22;11943;52.270;20.978;2022-08-16T13:49:59;28.70;89.30
23532;DHT22;11943;52.270;20.978;2022-08-16T13:52:25;28.60;84.90
23532;DHT22;11943;52.270;20.978;2022-08-16T13:54:50;28.80;85.00
23532;DHT22;11943;52.270;20.978;2022-08-16T13:57:16;28.80;81.90
23532;DHT22;11943;52.270;20.978;2022-08-16T13:59:41;28.70;85.80
23532;DHT22;11943;52.270;20.978;2022-08-16T14:02:08;28.60;81.70
23532;DHT22;11943;52.270;20.978;2022-08-16T14:04:35;28.60;80.40
23532;DHT22;11943;52.270;20.978;2022-08-16T14:07:02;28.50;82.30
23532;DHT22;11943;52.270;20.978;2022-08-16T14:09:29;28.30;83.80
23532;DHT22;11943;52.270;20.978;2022-08-16T14:11:58;28.50;85.40
23532;DHT22;11943;52.270;20.978;2022-08-16T14:14:25;28.50;85.30
23532;DHT22;11943;52.270;20.978;2022-08-16T14:16:51;28.30;88.40
23532;DHT22;11943;52.270;20.978;2022-08-16T14:19:16;28.40;89.80
23532;DHT22;11943;52.270;20.978;2022-08-16T14:21:46;28.40;90.20
23532;DHT22;11943;52.270;20.978;2022-08-16T14:24:13;28.60;91.50
23532;DHT22;11943;52.270;20.978;2022-08-16T14:26:39;28.70;90.60
23532;DHT22;11943;52.270;20.978;2022-08-16T14:29:05;28.80;88.30
23532;DHT22;11943;52.270;20.978;2022-08-16T14:31:30;28.70;87.20
23532;DHT22;11943;52.270;20.978;2022-08-16T14:33:56;28.60;87.10
23532;DHT22;11943;52.270;20.978;2022-08-16T14:36:21;28.60;87.70
23532;DHT22;11943;52.270;20.978;2022-08-16T14:38:47;28.60;88.60
23532;DHT22;11943;52.270;20.978;2022-08-16T14:41:12;28.60;88.00
23532;DHT22;11943;52.270;20.978;2022-08-16T14:43:38;28.50;89.70
23532;DHT22;11943;52.270;20.978;2022-08-16T14:46:03;28.60;90.50
23532;DHT22;11943;52.270;20.978;2022-08-16T14:48:29;28.00;89.80
23532;DHT22;11943;52.270;20.978;2022-08-16T14:50:54;28.50;90.30
23532;DHT22;11943;52.270;20.978;2022-08-16T14:53:20;28.50;91.10
23532;DHT22;11943;52.270;20.978;2022-08-16T14:55:47;28.50;90.10
23532;DHT22;11943;52.270;20.978;2022-08-16T14:58:12;28.50;88.00
23532;DHT22;11943;52.270;20.978;2022-08-16T15:00:38;28.30;90.30
23532;DHT22;11943;52.270;20.978;2022-08-16T15:03:04;28.40;90.80
23532;DHT22;11943;52.270;20.978;2022-08-16T15:05:30;28.50;90.30
23532;DHT22;11943;52.270;20.978;2022-08-16T15:07:56;28.50;89.50
23532;DHT22;11943;52.270;20.978;2022-08-16T15:10:22;28.50;89.60
23532;DHT22;11943;52.270;20.978;2022-08-16T15:12:48;28.20;88.40
23532;DHT22;11943;52.270;20.978;2022-08-16T15:15:15;28.20;90.50